createdAt,value
2022-12-10T00:01:12.030Z,98903.00
2022-12-10T00:03:38.666Z,98905.53
2022-12-10T00:06:07.667Z,98898.75
2022-12-10T00:08:35.205Z,98903.97
2022-12-10T00:11:04.785Z,98897.97
2022-12-10T00:13:31.819Z,98902.22
2022-12-10T00:16:04.506Z,98892.25
2022-12-10T00:18:31.189Z,98889.69
2022-12-10T00:20:57.706Z,98883.88
2022-12-10T00:23:24.203Z,98884.63
2022-12-10T00:25:51.176Z,98888.06
2022-12-10T00:28:17.788Z,98886.28
2022-12-10T00:30:44.314Z,98881.00
2022-12-10T00:33:10.808Z,98885.13
2022-12-10T00:35:37.788Z,98880.09
2022-12-10T00:38:04.695Z,98877.56
2022-12-10T00:40:31.175Z,98872.53
2022-12-10T00:42:57.686Z,98868.28
2022-12-10T00:45:24.151Z,98856.53
2022-12-10T00:47:50.666Z,98862.34
2022-12-10T00:50:17.228Z,98864.09
2022-12-10T00:52:43.704Z,98861.56
2022-12-10T00:55:10.211Z,98843.06
2022-12-10T00:57:36.832Z,98830.34
2022-12-10T01:00:04.312Z,98825.44
2022-12-10T01:02:30.843Z,98813.84
2022-12-10T01:04:57.464Z,98806.78
2022-12-10T01:07:23.986Z,98814.41
2022-12-10T01:09:50.490Z,98816.06
2022-12-10T01:12:17.032Z,98816.88
2022-12-10T01:14:43.498Z,98821.22
2022-12-10T01:17:10.002Z,98814.41
2022-12-10T01:19:36.540Z,98806.06
2022-12-10T01:22:03.937Z,98814.41
2022-12-10T01:24:30.740Z,98814.41
2022-12-10T01:26:57.951Z,98815.16
2022-12-10T01:29:24.867Z,98805.88
2022-12-10T01:31:53.396Z,98798.16
2022-12-10T01:34:20.499Z,98802.47
2022-12-10T01:36:51.198Z,98793.97
2022-12-10T01:39:19.153Z,98783.84
2022-12-10T01:41:54.918Z,98779.56
2022-12-10T01:44:21.424Z,98770.47
2022-12-10T01:46:51.056Z,98763.56
2022-12-10T01:49:23.335Z,98762.75
2022-12-10T01:51:52.594Z,98751.91
2022-12-10T01:54:28.364Z,98761.19
2022-12-10T01:57:04.468Z,98762.84
2022-12-10T01:59:32.314Z,98755.19
2022-12-10T02:02:13.688Z,98756.13
2022-12-10T02:04:46.322Z,98745.09
2022-12-10T02:07:37.352Z,98734.25
2022-12-10T02:10:03.803Z,98722.41
2022-12-10T02:12:44.517Z,98722.53
2022-12-10T02:15:15.811Z,98723.22
2022-12-10T02:17:58.968Z,98712.31
2022-12-10T02:20:32.763Z,98705.34
2022-12-10T06:25:41.531Z,98486.25
2022-12-10T06:28:08.745Z,98486.25
2022-12-10T06:30:36.304Z,98492.28
2022-12-10T06:33:02.836Z,98493.13
2022-12-10T06:35:29.556Z,98485.50
2022-12-10T06:37:56.070Z,98478.03
2022-12-10T06:40:22.614Z,98466.19
2022-12-10T06:42:51.990Z,98478.13
2022-12-10T06:45:18.582Z,98465.56
2022-12-10T06:47:45.084Z,98470.91
2022-12-10T06:50:11.679Z,98464.97
2022-12-10T06:52:38.242Z,98470.09
2022-12-10T06:55:05.100Z,98455.03
2022-12-10T06:57:31.594Z,98450.03
2022-12-10T06:59:58.139Z,98443.41
2022-12-10T07:02:24.840Z,98434.16
2022-12-10T07:04:51.424Z,98436.72
2022-12-10T07:07:17.958Z,98438.44
2022-12-10T07:09:44.550Z,98441.91
2022-12-10T07:12:11.024Z,98435.19
2022-12-10T12:33:33.732Z,98240.03
2022-12-10T12:36:08.058Z,98242.66
2022-12-10T12:38:56.891Z,98240.28
2022-12-10T12:41:47.948Z,98247.06
2022-12-10T12:44:54.716Z,98249.66
2022-12-10T12:47:40.892Z,98236.97
2022-12-10T12:50:24.989Z,98247.13
2022-12-10T12:53:00.615Z,98257.31
2022-12-10T12:55:38.788Z,98258.25
2022-12-10T12:58:25.913Z,98257.47
2022-12-10T13:00:58.090Z,98259.00
2022-12-10T13:03:37.086Z,98253.97
2022-12-10T13:06:19.950Z,98247.22
2022-12-10T13:09:13.552Z,98256.56
2022-12-10T13:11:44.030Z,98257.38
2022-12-10T13:14:10.824Z,98262.53
2022-12-10T13:16:46.240Z,98264.97
2022-12-10T15:37:41.741Z,98297.75
2022-12-10T15:40:24.262Z,98295.25
2022-12-10T15:42:51.347Z,98287.63
2022-12-10T15:45:23.144Z,98295.19
2022-12-10T15:47:50.805Z,98293.44
2022-12-10T15:50:18.782Z,98289.31
2022-12-10T15:52:45.924Z,98295.31
2022-12-10T15:55:14.769Z,98298.63
2022-12-10T15:57:50.264Z,98297.00
2022-12-10T16:00:27.595Z,98297.00
2022-12-10T16:02:58.425Z,98305.44
2022-12-10T16:05:27.900Z,98307.13
2022-12-10T16:07:56.675Z,98305.44
2022-12-10T16:10:26.819Z,98303.66
2022-12-10T16:13:04.001Z,98297.22
2022-12-10T16:15:42.319Z,98289.56
2022-12-10T16:18:11.828Z,98291.13
2022-12-10T16:20:38.493Z,98286.88
2022-12-10T16:26:51.883Z,98295.09
2022-12-10T16:29:21.334Z,98303.63
2022-12-10T16:31:48.335Z,98281.53
2022-12-10T16:34:15.153Z,98289.09
2022-12-10T16:36:41.801Z,98303.31
2022-12-10T16:39:08.478Z,98301.56
2022-12-10T16:41:35.189Z,98295.78
2022-12-10T16:44:02.004Z,98296.88
2022-12-10T16:46:28.543Z,98298.59
2022-12-10T16:48:55.136Z,98301.22
2022-12-10T16:51:31.664Z,98318.00
2022-12-10T16:53:58.786Z,98309.69
2022-12-10T16:56:25.317Z,98310.25
2022-12-10T16:58:52.072Z,98317.97
2022-12-10T17:01:22.497Z,98323.00
2022-12-10T17:03:51.169Z,98317.00
2022-12-10T17:06:18.734Z,98328.91
2022-12-10T17:08:45.735Z,98316.28
2022-12-10T17:11:48.398Z,98319.44
2022-12-10T17:14:22.814Z,98317.00
2022-12-10T17:16:50.817Z,98329.56
2022-12-10T17:19:17.750Z,98324.38
2022-12-10T17:21:44.491Z,98322.78
2022-12-10T17:24:11.058Z,98328.66
2022-12-10T17:26:40.981Z,98334.69
2022-12-10T17:29:12.702Z,98331.34
2022-12-10T17:31:40.365Z,98338.06
2022-12-10T17:34:08.224Z,98344.63
2022-12-10T17:36:35.222Z,98342.16
2022-12-10T17:39:01.779Z,98349.63
2022-12-10T17:41:28.728Z,98344.44
2022-12-10T17:43:55.890Z,98349.50
2022-12-10T17:46:25.871Z,98350.34
2022-12-10T17:48:53.959Z,98354.31
2022-12-10T17:51:20.855Z,98358.63
2022-12-10T17:53:47.372Z,98344.19
2022-12-10T17:56:17.616Z,98347.47
2022-12-10T17:58:44.928Z,98354.31
2022-12-10T18:01:11.738Z,98352.75
2022-12-10T19:08:34.465Z,98340.91
2022-12-10T19:11:11.529Z,98340.38
2022-12-10T19:13:40.451Z,98345.31
2022-12-10T19:16:14.045Z,98336.25
2022-12-10T19:18:40.723Z,98333.00
2022-12-10T19:21:08.488Z,98334.44
2022-12-10T19:23:35.355Z,98325.91
2022-12-10T19:26:02.644Z,98335.22
2022-12-10T19:28:29.208Z,98331.97
2022-12-10T19:30:55.775Z,98336.84
2022-12-10T19:33:23.063Z,98336.97
2022-12-10T19:35:49.874Z,98342.97
2022-12-10T19:38:16.804Z,98333.66
2022-12-10T19:40:43.420Z,98343.03
2022-12-10T19:43:14.137Z,98336.84
2022-12-10T19:45:41.068Z,98341.19
2022-12-10T19:48:10.002Z,98339.56
2022-12-10T19:50:36.667Z,98343.13
2022-12-10T19:53:04.684Z,98349.78
2022-12-10T19:55:31.809Z,98348.19
2022-12-10T19:57:58.323Z,98345.69
2022-12-10T20:00:33.387Z,98343.91
2022-12-10T20:03:00.546Z,98346.38
2022-12-10T20:05:27.372Z,98344.69
2022-12-10T20:07:54.142Z,98344.56
2022-12-10T20:10:27.032Z,98360.50
2022-12-10T20:12:53.839Z,98357.47
2022-12-10T20:15:23.262Z,98354.13
2022-12-10T20:17:50.365Z,98361.91
2022-12-10T20:20:21.229Z,98366.00
2022-12-10T20:22:48.118Z,98356.84
2022-12-10T20:25:15.795Z,98358.19
2022-12-10T20:27:43.232Z,98363.38
2022-12-10T20:30:18.322Z,98355.94
2022-12-10T20:32:44.936Z,98354.31
2022-12-10T20:35:17.082Z,98349.97
2022-12-10T20:37:43.643Z,98348.41
2022-12-10T20:40:33.354Z,98352.50
2022-12-10T20:43:01.114Z,98339.88
2022-12-10T20:45:28.147Z,98333.09
2022-12-10T20:47:54.738Z,98339.88
2022-12-10T20:50:22.000Z,98340.72
2022-12-10T20:52:49.125Z,98348.41
2022-12-10T20:55:16.236Z,98367.06
2022-12-10T20:57:43.117Z,98354.50
2022-12-10T21:00:16.723Z,98354.44
2022-12-10T21:02:43.511Z,98362.97
2022-12-10T21:05:10.740Z,98360.28
2022-12-10T21:07:37.650Z,98360.28
